Impacts METAR Board INFO
IDs:

KPHL - Philadelphia Intl, PA, US

Updated at: 1536 UTC 18 Nov 2017
Potential Impact None Slight Moderate High
Time18/03Z 18/04Z 18/05Z 18/06Z 18/07Z 18/08Z 18/09Z 18/10Z 18/11Z 18/12Z 18/13Z 18/14Z 18/15Z
VIS10 10 10 10 10 10 10 10 10 10 10 10 10
CIG-- -- 250 250 250 250 -- 250 250 250 200 160 160
CoverSCTSCTBKNBKNBKNBKNSCTBKNOVCBKNBKNBKNBKN
FltCatVFRVFRVFRVFRVFRVFRVFRVFRVFRVFRVFRVFRVFR
WX--------------------------
WDir2202402202500150200190130170180180190
WSpd3 3 4 3 0 4 5 3 3 5 7 8 9
WGst-- -- -- -- -- -- -- -- -- -- -- -- --
Raw hourly METARs
KPHL 180254Z 22003KT 10SM FEW140 SCT250 04/M03 A3012 RMK AO2 SLP199 T00441033 55004
KPHL 180354Z 24003KT 10SM FEW140 SCT250 04/M03 A3011 RMK AO2 SLP195 T00391028
KPHL 180454Z 22004KT 10SM FEW150 BKN250 03/M02 A3009 RMK AO2 SLP189 T00281017 401060028
KPHL 180554Z AUTO 25003KT 10SM SCT150 BKN250 04/M01 A3007 RMK AO2 SLP183 T00391011 10083 20028 58016
KPHL 180654Z 00000KT 10SM FEW160 BKN250 02/M03 A3006 RMK AO2 SLP177 T00221028
KPHL 180754Z 15004KT 10SM BKN250 02/M01 A3003 RMK AO2 SLP169 T00221006
KPHL 180854Z 20005KT 10SM SCT250 02/M02 A3003 RMK AO2 SLP167 T00171017 56016
KPHL 180954Z 19003KT 10SM BKN250 02/M01 A3003 RMK AO2 SLP167 T00221011
KPHL 181054Z 13003KT 10SM SCT180 OVC250 01/M02 A3000 RMK AO2 SLP159 T00111017
KPHL 181154Z 17005KT 10SM FEW180 BKN250 03/00 A2998 RMK AO2 SLP151 T00330000 10044 20011 58016
KPHL 181254Z 18007KT 10SM FEW100 BKN200 BKN260 06/02 A2996 RMK AO2 SLP146 T00560017
KPHL 181354Z 18008KT 10SM SCT120 BKN160 BKN260 07/02 A2993 RMK AO2 SLP136 T00670022
KPHL 181454Z 19009KT 10SM SCT120 BKN160 BKN220 BKN260 08/03 A2991 RMK AO2 SLP126 T00830028 58024